sensor_id;sensor_type;location;lat;lon;timestamp;pressure;altitude;pressure_sealevel;temperature;humidity
38466;BME280;24244;51.950;5.902;2023-12-04T00:02:15;101280.91;;;2.05;84.78
38466;BME280;24244;51.950;5.902;2023-12-04T00:04:44;101278.41;;;2.04;85.23
38466;BME280;24244;51.950;5.902;2023-12-04T00:07:11;101286.16;;;2.05;85.21
38466;BME280;24244;51.950;5.902;2023-12-04T00:09:37;101283.53;;;2.05;85.15
38466;BME280;24244;51.950;5.902;2023-12-04T00:12:05;101281.03;;;2.04;84.69
38466;BME280;24244;51.950;5.902;2023-12-04T00:14:35;101276.63;;;2.04;84.89
38466;BME280;24244;51.950;5.902;2023-12-04T00:17:03;101271.38;;;2.04;85.11
38466;BME280;24244;51.950;5.902;2023-12-04T00:19:30;101269.81;;;2.02;84.96
38466;BME280;24244;51.950;5.902;2023-12-04T00:21:58;101266.97;;;2.05;84.85
38466;BME280;24244;51.950;5.902;2023-12-04T00:24:26;101270.63;;;2.02;84.83
38466;BME280;24244;51.950;5.902;2023-12-04T00:26:53;101257.41;;;2.04;85.29
38466;BME280;24244;51.950;5.902;2023-12-04T00:29:22;101262.66;;;2.04;85.09
38466;BME280;24244;51.950;5.902;2023-12-04T00:31:49;101253.13;;;2.03;84.73
38466;BME280;24244;51.950;5.902;2023-12-04T00:34:16;101252.28;;;2.02;85.36
38466;BME280;24244;51.950;5.902;2023-12-04T00:36:43;101255.75;;;2.03;84.72
38466;BME280;24244;51.950;5.902;2023-12-04T00:39:15;101251.22;;;2.05;84.85
38466;BME280;24244;51.950;5.902;2023-12-04T00:41:42;101251.22;;;2.05;84.89
38466;BME280;24244;51.950;5.902;2023-12-04T00:44:09;101257.31;;;2.05;84.91
38466;BME280;24244;51.950;5.902;2023-12-04T00:46:36;101250.28;;;2.06;84.82
38466;BME280;24244;51.950;5.902;2023-12-04T00:49:03;101252.75;;;2.07;84.94
38466;BME280;24244;51.950;5.902;2023-12-04T00:51:37;101254.44;;;2.08;85.06
38466;BME280;24244;51.950;5.902;2023-12-04T00:54:04;101250.97;;;2.08;84.75
38466;BME280;24244;51.950;5.902;2023-12-04T00:56:32;101247.28;;;2.10;84.87
38466;BME280;24244;51.950;5.902;2023-12-04T00:59:00;101250.50;;;2.14;84.47
38466;BME280;24244;51.950;5.902;2023-12-04T01:01:27;101251.47;;;2.13;85.07
38466;BME280;24244;51.950;5.902;2023-12-04T01:03:54;101241.09;;;2.11;84.72
38466;BME280;24244;51.950;5.902;2023-12-04T01:06:21;101242.78;;;2.12;84.88
38466;BME280;24244;51.950;5.902;2023-12-04T01:08:49;101240.16;;;2.12;84.47
38466;BME280;24244;51.950;5.902;2023-12-04T01:11:17;101237.63;;;2.11;84.62
38466;BME280;24244;51.950;5.902;2023-12-04T01:13:45;101240.97;;;2.13;84.79
38466;BME280;24244;51.950;5.902;2023-12-04T01:16:12;101235.75;;;2.13;84.79
38466;BME280;24244;51.950;5.902;2023-12-04T01:18:39;101226.88;;;2.14;84.52
38466;BME280;24244;51.950;5.902;2023-12-04T01:21:08;101234.66;;;2.15;84.72
38466;BME280;24244;51.950;5.902;2023-12-04T01:23:36;101217.25;;;2.14;84.84
38466;BME280;24244;51.950;5.902;2023-12-04T01:26:03;101226.06;;;2.13;84.39
38466;BME280;24244;51.950;5.902;2023-12-04T01:28:30;101223.56;;;2.12;84.48
38466;BME280;24244;51.950;5.902;2023-12-04T01:30:59;101220.00;;;2.13;84.53
38466;BME280;24244;51.950;5.902;2023-12-04T01:33:26;101207.00;;;2.11;84.37
38466;BME280;24244;51.950;5.902;2023-12-04T01:35:53;101207.84;;;2.12;84.55
38466;BME280;24244;51.950;5.902;2023-12-04T01:38:21;101207.97;;;2.10;84.81
38466;BME280;24244;51.950;5.902;2023-12-04T01:40:48;101200.94;;;2.11;84.52
38466;BME280;24244;51.950;5.902;2023-12-04T01:43:19;101198.41;;;2.09;84.62
38466;BME280;24244;51.950;5.902;2023-12-04T01:45:46;101199.38;;;2.08;84.77
38466;BME280;24244;51.950;5.902;2023-12-04T01:48:14;101194.25;;;2.07;84.77
38466;BME280;24244;51.950;5.902;2023-12-04T01:50:42;101189.72;;;2.09;85.03
38466;BME280;24244;51.950;5.902;2023-12-04T01:53:09;101187.09;;;2.09;84.85
38466;BME280;24244;51.950;5.902;2023-12-04T01:55:37;101188.78;;;2.10;84.92
38466;BME280;24244;51.950;5.902;2023-12-04T01:58:05;101182.56;;;2.11;84.62
38466;BME280;24244;51.950;5.902;2023-12-04T02:00:33;101184.47;;;2.09;84.59
38466;BME280;24244;51.950;5.902;2023-12-04T02:03:00;101182.69;;;2.09;84.56
38466;BME280;24244;51.950;5.902;2023-12-04T02:05:29;101180.06;;;2.09;84.93
38466;BME280;24244;51.950;5.902;2023-12-04T02:07:56;101180.06;;;2.09;84.43
38466;BME280;24244;51.950;5.902;2023-12-04T02:10:23;101163.50;;;2.09;84.78
38466;BME280;24244;51.950;5.902;2023-12-04T02:12:50;101166.13;;;2.09;84.51
38466;BME280;24244;51.950;5.902;2023-12-04T02:15:17;101154.91;;;2.07;84.71
38466;BME280;24244;51.950;5.902;2023-12-04T02:17:44;101147.19;;;2.05;84.21
38466;BME280;24244;51.950;5.902;2023-12-04T02:20:12;101152.44;;;2.05;84.51
38466;BME280;24244;51.950;5.902;2023-12-04T02:22:41;101156.84;;;2.05;84.39
38466;BME280;24244;51.950;5.902;2023-12-04T02:25:09;101148.97;;;2.05;84.79
38466;BME280;24244;51.950;5.902;2023-12-04T02:27:59;101147.19;;;2.05;84.64
38466;BME280;24244;51.950;5.902;2023-12-04T02:30:29;101152.28;;;2.07;84.42
38466;BME280;24244;51.950;5.902;2023-12-04T02:33:00;101150.38;;;2.09;84.88
38466;BME280;24244;51.950;5.902;2023-12-04T02:35:31;101151.22;;;2.09;84.62
38466;BME280;24244;51.950;5.902;2023-12-04T02:38:00;101136.34;;;2.10;84.55
38466;BME280;24244;51.950;5.902;2023-12-04T02:40:28;101133.72;;;2.10;84.23
38466;BME280;24244;51.950;5.902;2023-12-04T02:42:56;101130.38;;;2.08;84.10
38466;BME280;24244;51.950;5.902;2023-12-04T02:45:23;101128.00;;;2.05;84.42
38466;BME280;24244;51.950;5.902;2023-12-04T02:47:50;101120.97;;;2.05;84.69
38466;BME280;24244;51.950;5.902;2023-12-04T02:50:18;101118.94;;;2.09;84.51
38466;BME280;24244;51.950;5.902;2023-12-04T02:52:44;101117.13;;;2.09;84.63
38466;BME280;24244;51.950;5.902;2023-12-04T02:55:11;101117.03;;;2.11;84.68
38466;BME280;24244;51.950;5.902;2023-12-04T02:57:39;101111.78;;;2.11;84.78
38466;BME280;24244;51.950;5.902;2023-12-04T03:00:07;101106.78;;;2.08;84.39
38466;BME280;24244;51.950;5.902;2023-12-04T03:02:34;101100.69;;;2.07;84.59
38466;BME280;24244;51.950;5.902;2023-12-04T03:05:01;101099.84;;;2.07;84.18
38466;BME280;24244;51.950;5.902;2023-12-04T03:07:28;101097.13;;;2.08;84.20
38466;BME280;24244;51.950;5.902;2023-12-04T03:09:56;101101.53;;;2.08;84.42
38466;BME280;24244;51.950;5.902;2023-12-04T03:12:23;101085.09;;;2.06;84.44
38466;BME280;24244;51.950;5.902;2023-12-04T03:14:51;101090.34;;;2.06;84.25
38466;BME280;24244;51.950;5.902;2023-12-04T03:17:18;101082.50;;;2.06;84.70
38466;BME280;24244;51.950;5.902;2023-12-04T03:19:44;101081.38;;;2.08;84.67
38466;BME280;24244;51.950;5.902;2023-12-04T03:22:12;101084.00;;;2.08;84.46
38466;BME280;24244;51.950;5.902;2023-12-04T03:24:39;101083.88;;;2.10;84.14
38466;BME280;24244;51.950;5.902;2023-12-04T03:30:12;101074.25;;;2.10;84.06
38466;BME280;24244;51.950;5.902;2023-12-04T03:32:39;101074.25;;;2.10;84.10
38466;BME280;24244;51.950;5.902;2023-12-04T03:35:07;101070.06;;;2.08;83.97
38466;BME280;24244;51.950;5.902;2023-12-04T03:37:33;101066.59;;;2.07;84.18
38466;BME280;24244;51.950;5.902;2023-12-04T03:40:00;101069.38;;;2.06;84.41
38466;BME280;24244;51.950;5.902;2023-12-04T03:42:29;101068.41;;;2.07;84.06
38466;BME280;24244;51.950;5.902;2023-12-04T03:44:56;101068.28;;;2.08;84.56
38466;BME280;24244;51.950;5.902;2023-12-04T03:47:24;101063.88;;;2.09;84.14
38466;BME280;24244;51.950;5.902;2023-12-04T03:49:51;101050.63;;;2.10;84.38
38466;BME280;24244;51.950;5.902;2023-12-04T03:52:18;101048.84;;;2.11;84.22
38466;BME280;24244;51.950;5.902;2023-12-04T03:54:45;101042.78;;;2.10;84.06
38466;BME280;24244;51.950;5.902;2023-12-04T03:57:12;101036.69;;;2.10;84.26
38466;BME280;24244;51.950;5.902;2023-12-04T03:59:39;101032.28;;;2.10;83.85
38466;BME280;24244;51.950;5.902;2023-12-04T04:02:06;101035.75;;;2.11;84.08
38466;BME280;24244;51.950;5.902;2023-12-04T04:04:34;101035.88;;;2.09;84.03
38466;BME280;24244;51.950;5.902;2023-12-04T04:07:02;101030.84;;;2.06;84.42
38466;BME280;24244;51.950;5.902;2023-12-04T04:09:29;101032.66;;;2.06;84.12
38466;BME280;24244;51.950;5.902;2023-12-04T04:11:55;101031.69;;;2.07;84.10
38466;BME280;24244;51.950;5.902;2023-12-04T04:14:22;101023.81;;;2.07;84.18
38466;BME280;24244;51.950;5.902;2023-12-04T04:16:51;101020.53;;;2.05;83.82
38466;BME280;24244;51.950;5.902;2023-12-04T04:19:17;101017.91;;;2.05;84.32
38466;BME280;24244;51.950;5.902;2023-12-04T04:21:46;101018.84;;;2.04;84.21
38466;BME280;24244;51.950;5.902;2023-12-04T04:24:13;101012.88;;;2.02;83.91
38466;BME280;24244;51.950;5.902;2023-12-04T04:26:39;101006.94;;;2.00;84.50
38466;BME280;24244;51.950;5.902;2023-12-04T04:29:06;101015.63;;;2.00;84.32
38466;BME280;24244;51.950;5.902;2023-12-04T04:31:34;101007.91;;;1.99;83.86
38466;BME280;24244;51.950;5.902;2023-12-04T04:34:02;101002.91;;;1.95;83.87
38466;BME280;24244;51.950;5.902;2023-12-04T04:36:29;100992.53;;;1.94;84.43
38466;BME280;24244;51.950;5.902;2023-12-04T04:38:57;100995.16;;;1.94;84.01
38466;BME280;24244;51.950;5.902;2023-12-04T04:41:24;100984.69;;;1.94;84.06
38466;BME280;24244;51.950;5.902;2023-12-04T04:43:51;100986.47;;;1.93;84.03
38466;BME280;24244;51.950;5.902;2023-12-04T04:46:17;100986.47;;;1.93;83.86
38466;BME280;24244;51.950;5.902;2023-12-04T04:48:44;100984.78;;;1.92;83.79
38466;BME280;24244;51.950;5.902;2023-12-04T04:51:12;100981.34;;;1.92;83.93
38466;BME280;24244;51.950;5.902;2023-12-04T04:53:38;100973.34;;;1.93;84.15
38466;BME280;24244;51.950;5.902;2023-12-04T04:56:09;100979.44;;;1.94;83.72
38466;BME280;24244;51.950;5.902;2023-12-04T04:58:36;100973.34;;;1.93;83.82
38466;BME280;24244;51.950;5.902;2023-12-04T05:01:04;100969.78;;;1.94;83.84
38466;BME280;24244;51.950;5.902;2023-12-04T05:03:31;100965.50;;;1.93;83.70
38466;BME280;24244;51.950;5.902;2023-12-04T05:05:58;100965.50;;;1.93;83.62
38466;BME280;24244;51.950;5.902;2023-12-04T05:08:25;100965.50;;;1.93;84.20
38466;BME280;24244;51.950;5.902;2023-12-04T05:10:51;100962.88;;;1.93;83.84
38466;BME280;24244;51.950;5.902;2023-12-04T05:13:19;100963.72;;;1.94;83.66
38466;BME280;24244;51.950;5.902;2023-12-04T05:15:46;100964.81;;;1.91;83.41
38466;BME280;24244;51.950;5.902;2023-12-04T05:18:14;100970.84;;;1.92;83.94
38466;BME280;24244;51.950;5.902;2023-12-04T05:20:41;100973.63;;;1.90;83.71
38466;BME280;24244;51.950;5.902;2023-12-04T05:23:07;100972.53;;;1.93;84.11
38466;BME280;24244;51.950;5.902;2023-12-04T05:25:35;100973.34;;;1.93;83.47
38466;BME280;24244;51.950;5.902;2023-12-04T05:28:10;100960.97;;;1.95;83.25
38466;BME280;24244;51.950;5.902;2023-12-04T05:30:39;100949.41;;;1.98;83.69
38466;BME280;24244;51.950;5.902;2023-12-04T05:33:06;100944.28;;;1.96;83.91
38466;BME280;24244;51.950;5.902;2023-12-04T05:35:33;100952.16;;;1.96;83.53
38466;BME280;24244;51.950;5.902;2023-12-04T05:38:01;100955.72;;;1.95;83.49
38466;BME280;24244;51.950;5.902;2023-12-04T05:40:28;100954.06;;;1.94;83.78
38466;BME280;24244;51.950;5.902;2023-12-04T05:42:55;100946.06;;;1.96;83.27
38466;BME280;24244;51.950;5.902;2023-12-04T05:45:22;100940.84;;;1.96;83.87
38466;BME280;24244;51.950;5.902;2023-12-04T05:47:50;100942.63;;;1.95;83.71
38466;BME280;24244;51.950;5.902;2023-12-04T05:50:19;100940.13;;;1.94;83.59
38466;BME280;24244;51.950;5.902;2023-12-04T05:52:46;100937.50;;;1.94;83.39
38466;BME280;24244;51.950;5.902;2023-12-04T05:55:13;100932.25;;;1.94;83.26
38466;BME280;24244;51.950;5.902;2023-12-04T05:57:40;100929.75;;;1.92;83.19
38466;BME280;24244;51.950;5.902;2023-12-04T06:00:08;100927.13;;;1.92;83.05
38466;BME280;24244;51.950;5.902;2023-12-04T06:02:39;100919.28;;;1.92;83.73
38466;BME280;24244;51.950;5.902;2023-12-04T06:05:08;100920.25;;;1.91;83.45
38466;BME280;24244;51.950;5.902;2023-12-04T06:07:35;100917.63;;;1.91;83.01
38466;BME280;24244;51.950;5.902;2023-12-04T06:10:03;100918.44;;;1.92;83.25
38466;BME280;24244;51.950;5.902;2023-12-04T06:12:35;100907.00;;;1.93;82.97
38466;BME280;24244;51.950;5.902;2023-12-04T06:15:03;100913.06;;;1.93;83.18
38466;BME280;24244;51.950;5.902;2023-12-04T06:17:30;100906.88;;;1.94;83.27
38466;BME280;24244;51.950;5.902;2023-12-04T06:19:57;100904.13;;;1.96;83.43
38466;BME280;24244;51.950;5.902;2023-12-04T06:22:25;100903.31;;;1.95;83.28
38466;BME280;24244;51.950;5.902;2023-12-04T06:24:53;100897.94;;;1.97;83.00
38466;BME280;24244;51.950;5.902;2023-12-04T06:27:20;100906.50;;;1.99;83.37
38466;BME280;24244;51.950;5.902;2023-12-04T06:29:48;100897.81;;;1.99;83.15
38466;BME280;24244;51.950;5.902;2023-12-04T06:32:19;100905.41;;;2.02;82.96
38466;BME280;24244;51.950;5.902;2023-12-04T06:34:47;100897.53;;;2.02;83.00
38466;BME280;24244;51.950;5.902;2023-12-04T06:37:15;100892.31;;;2.02;82.96
38466;BME280;24244;51.950;5.902;2023-12-04T06:39:45;100893.13;;;2.02;82.47
38466;BME280;24244;51.950;5.902;2023-12-04T06:42:15;100887.91;;;2.02;82.93
38466;BME280;24244;51.950;5.902;2023-12-04T06:44:42;100886.34;;;2.00;83.13
38466;BME280;24244;51.950;5.902;2023-12-04T06:47:09;100875.88;;;2.00;82.55
38466;BME280;24244;51.950;5.902;2023-12-04T06:49:38;100869.66;;;2.01;83.00
38466;BME280;24244;51.950;5.902;2023-12-04T06:52:05;100871.44;;;2.00;82.52
38466;BME280;24244;51.950;5.902;2023-12-04T06:54:32;100863.59;;;2.00;82.75
38466;BME280;24244;51.950;5.902;2023-12-04T06:57:01;100863.59;;;2.00;82.62
38466;BME280;24244;51.950;5.902;2023-12-04T06:59:28;100854.78;;;2.01;83.06
38466;BME280;24244;51.950;5.902;2023-12-04T07:01:55;100857.50;;;2.00;82.57
38466;BME280;24244;51.950;5.902;2023-12-04T07:04:22;100853.94;;;2.01;82.72
38466;BME280;24244;51.950;5.902;2023-12-04T07:06:49;100856.44;;;2.02;82.70
38466;BME280;24244;51.950;5.902;2023-12-04T07:09:16;100852.97;;;2.02;82.28
38466;BME280;24244;51.950;5.902;2023-12-04T07:11:44;100850.34;;;2.02;82.51
38466;BME280;24244;51.950;5.902;2023-12-04T07:14:14;100855.59;;;2.02;82.28
38466;BME280;24244;51.950;5.902;2023-12-04T07:16:42;100845.81;;;2.04;82.59
38466;BME280;24244;51.950;5.902;2023-12-04T07:19:11;100838.78;;;2.04;82.49
38466;BME280;24244;51.950;5.902;2023-12-04T07:21:43;100825.69;;;2.04;82.34
38466;BME280;24244;51.950;5.902;2023-12-04T07:24:10;100829.16;;;2.05;82.03
38466;BME280;24244;51.950;5.902;2023-12-04T07:26:37;100819.63;;;2.04;82.54
38466;BME280;24244;51.950;5.902;2023-12-04T07:29:04;100819.63;;;2.04;82.41
38466;BME280;24244;51.950;5.902;2023-12-04T07:31:33;100810.91;;;2.03;82.37
38466;BME280;24244;51.950;5.902;2023-12-04T07:33:59;100809.13;;;2.04;82.23
38466;BME280;24244;51.950;5.902;2023-12-04T07:36:29;100809.13;;;2.04;81.95
38466;BME280;24244;51.950;5.902;2023-12-04T07:42:19;100804.00;;;2.02;82.15
38466;BME280;24244;51.950;5.902;2023-12-04T07:44:46;100804.00;;;2.02;82.12
38466;BME280;24244;51.950;5.902;2023-12-04T07:47:15;100796.97;;;2.03;82.11
38466;BME280;24244;51.950;5.902;2023-12-04T07:49:44;100792.69;;;2.02;82.07
38466;BME280;24244;51.950;5.902;2023-12-04T07:52:11;100797.94;;;2.02;82.06
38466;BME280;24244;51.950;5.902;2023-12-04T07:54:40;100797.09;;;2.01;81.98
38466;BME280;24244;51.950;5.902;2023-12-04T07:57:07;100808.16;;;2.05;82.21
38466;BME280;24244;51.950;5.902;2023-12-04T07:59:34;100790.66;;;2.05;81.91
38466;BME280;24244;51.950;5.902;2023-12-04T08:02:01;100799.19;;;2.07;81.49
38466;BME280;24244;51.950;5.902;2023-12-04T08:04:29;100793.13;;;2.07;81.36
38466;BME280;24244;51.950;5.902;2023-12-04T08:06:56;100809.00;;;2.05;81.80
38466;BME280;24244;51.950;5.902;2023-12-04T08:09:23;100820.88;;;2.09;81.58
38466;BME280;24244;51.950;5.902;2023-12-04T08:11:51;100813.59;;;2.13;81.64
38466;BME280;24244;51.950;5.902;2023-12-04T08:14:22;100806.53;;;2.13;81.46
38466;BME280;24244;51.950;5.902;2023-12-04T08:16:49;100807.38;;;2.14;81.50
38466;BME280;24244;51.950;5.902;2023-12-04T08:19:16;100807.25;;;2.15;81.49
38466;BME280;24244;51.950;5.902;2023-12-04T08:21:47;100814.16;;;2.16;81.34
38466;BME280;24244;51.950;5.902;2023-12-04T08:24:14;100804.50;;;2.17;81.42
38466;BME280;24244;51.950;5.902;2023-12-04T08:26:45;100799.25;;;2.17;81.50
38466;BME280;24244;51.950;5.902;2023-12-04T08:29:12;100808.66;;;2.19;81.49
38466;BME280;24244;51.950;5.902;2023-12-04T08:31:40;100803.97;;;2.23;81.35
38466;BME280;24244;51.950;5.902;2023-12-04T08:34:07;100796.81;;;2.25;81.01
38466;BME280;24244;51.950;5.902;2023-12-04T08:36:33;100799.31;;;2.26;80.91
38466;BME280;24244;51.950;5.902;2023-12-04T08:39:13;100801.94;;;2.26;81.21
38466;BME280;24244;51.950;5.902;2023-12-04T08:41:40;100793.06;;;2.27;81.40
38466;BME280;24244;51.950;5.902;2023-12-04T08:44:20;100793.91;;;2.28;81.24
38466;BME280;24244;51.950;5.902;2023-12-04T08:46:46;100788.66;;;2.28;81.06
38466;BME280;24244;51.950;5.902;2023-12-04T08:49:13;100784.25;;;2.28;81.35
38466;BME280;24244;51.950;5.902;2023-12-04T08:51:40;100783.28;;;2.29;81.35
38466;BME280;24244;51.950;5.902;2023-12-04T08:54:07;100784.94;;;2.30;80.89
38466;BME280;24244;51.950;5.902;2023-12-04T08:56:39;100778.75;;;2.31;80.99
38466;BME280;24244;51.950;5.902;2023-12-04T08:59:05;100774.22;;;2.33;81.23
38466;BME280;24244;51.950;5.902;2023-12-04T09:01:33;100772.41;;;2.34;80.76
38466;BME280;24244;51.950;5.902;2023-12-04T09:04:00;100766.34;;;2.33;81.20
38466;BME280;24244;51.950;5.902;2023-12-04T09:06:27;100769.63;;;2.35;80.82
38466;BME280;24244;51.950;5.902;2023-12-04T09:08:57;100762.59;;;2.36;81.17
38466;BME280;24244;51.950;5.902;2023-12-04T09:11:34;100763.31;;;2.38;81.01
38466;BME280;24244;51.950;5.902;2023-12-04T09:14:02;100759.72;;;2.39;81.13
38466;BME280;24244;51.950;5.902;2023-12-04T09:16:29;100759.72;;;2.39;81.14
38466;BME280;24244;51.950;5.902;2023-12-04T09:18:56;100756.16;;;2.40;80.79
38466;BME280;24244;51.950;5.902;2023-12-04T09:21:23;100743.88;;;2.41;80.77
38466;BME280;24244;51.950;5.902;2023-12-04T09:23:50;100739.44;;;2.41;81.13
38466;BME280;24244;51.950;5.902;2023-12-04T09:26:18;100736.66;;;2.43;80.46
38466;BME280;24244;51.950;5.902;2023-12-04T09:28:45;100736.53;;;2.44;80.61
38466;BME280;24244;51.950;5.902;2023-12-04T09:31:13;100730.19;;;2.47;80.55
38466;BME280;24244;51.950;5.902;2023-12-04T09:33:40;100733.50;;;2.49;80.57
38466;BME280;24244;51.950;5.902;2023-12-04T09:36:07;100739.44;;;2.51;80.72
38466;BME280;24244;51.950;5.902;2023-12-04T09:38:35;100729.78;;;2.51;80.52
38466;BME280;24244;51.950;5.902;2023-12-04T09:41:03;100734.91;;;2.53;80.56
38466;BME280;24244;51.950;5.902;2023-12-04T09:43:32;100726.75;;;2.56;80.98
38466;BME280;24244;51.950;5.902;2023-12-04T09:46:02;100730.91;;;2.58;80.74
38466;BME280;24244;51.950;5.902;2023-12-04T09:48:31;100725.66;;;2.58;80.87
38466;BME280;24244;51.950;5.902;2023-12-04T09:50:59;100731.59;;;2.60;80.77
38466;BME280;24244;51.950;5.902;2023-12-04T09:53:26;100726.22;;;2.62;80.98
38466;BME280;24244;51.950;5.902;2023-12-04T09:55:55;100724.28;;;2.64;80.89
38466;BME280;24244;51.950;5.902;2023-12-04T09:58:27;100726.91;;;2.64;80.75
38466;BME280;24244;51.950;5.902;2023-12-04T10:00:56;100717.25;;;2.64;80.44
38466;BME280;24244;51.950;5.902;2023-12-04T10:03:23;100714.63;;;2.64;80.60
38466;BME280;24244;51.950;5.902;2023-12-04T10:05:54;100718.91;;;2.65;80.91
38466;BME280;24244;51.950;5.902;2023-12-04T10:08:22;100721.41;;;2.67;80.60
38466;BME280;24244;51.950;5.902;2023-12-04T10:10:49;100713.41;;;2.68;80.61
38466;BME280;24244;51.950;5.902;2023-12-04T10:13:16;100709.81;;;2.69;80.84
38466;BME280;24244;51.950;5.902;2023-12-04T10:16:04;100700.94;;;2.70;80.83
38466;BME280;24244;51.950;5.902;2023-12-04T10:18:31;100701.50;;;2.74;80.97
38466;BME280;24244;51.950;5.902;2023-12-04T10:21:00;100694.34;;;2.76;80.75
38466;BME280;24244;51.950;5.902;2023-12-04T10:23:37;100685.50;;;2.77;80.95
38466;BME280;24244;51.950;5.902;2023-12-04T10:26:04;100686.19;;;2.79;80.92
38466;BME280;24244;51.950;5.902;2023-12-04T10:28:31;100687.13;;;2.78;80.92
38466;BME280;24244;51.950;5.902;2023-12-04T10:30:58;100688.66;;;2.81;80.94
38466;BME280;24244;51.950;5.902;2023-12-04T10:33:25;100683.28;;;2.82;80.58
38466;BME280;24244;51.950;5.902;2023-12-04T10:35:55;100680.53;;;2.84;80.60
38466;BME280;24244;51.950;5.902;2023-12-04T10:38:23;100687.41;;;2.85;80.55
38466;BME280;24244;51.950;5.902;2023-12-04T10:40:52;100676.91;;;2.85;80.47
38466;BME280;24244;51.950;5.902;2023-12-04T10:43:20;100678.56;;;2.86;80.32
38466;BME280;24244;51.950;5.902;2023-12-04T10:45:48;100669.75;;;2.87;80.29
38466;BME280;24244;51.950;5.902;2023-12-04T10:48:19;100665.31;;;2.87;79.84
38466;BME280;24244;51.950;5.902;2023-12-04T10:50:47;100663.53;;;2.88;79.87
38466;BME280;24244;51.950;5.902;2023-12-04T10:53:16;100661.88;;;2.87;79.45
38466;BME280;24244;51.950;5.902;2023-12-04T10:55:45;100654.00;;;2.87;79.74
38466;BME280;24244;51.950;5.902;2023-12-04T10:58:14;100654.69;;;2.89;79.93
38466;BME280;24244;51.950;5.902;2023-12-04T11:00:44;100640.59;;;2.90;79.81
38466;BME280;24244;51.950;5.902;2023-12-04T11:03:14;100637.00;;;2.91;79.90
38466;BME280;24244;51.950;5.902;2023-12-04T11:05:49;100641.25;;;2.92;79.48
38466;BME280;24244;51.950;5.902;2023-12-04T11:08:19;100631.47;;;2.94;79.71
38466;BME280;24244;51.950;5.902;2023-12-04T11:10:51;100626.22;;;2.94;79.60
38466;BME280;24244;51.950;5.902;2023-12-04T11:13:23;100622.50;;;2.96;79.67
38466;BME280;24244;51.950;5.902;2023-12-04T11:15:56;100618.06;;;2.97;79.34
38466;BME280;24244;51.950;5.902;2023-12-04T11:18:27;100622.34;;;2.98;79.68
38466;BME280;24244;51.950;5.902;2023-12-04T11:20:59;100614.19;;;3.01;79.28
38466;BME280;24244;51.950;5.902;2023-12-04T11:23:27;100613.34;;;3.00;79.33
38466;BME280;24244;51.950;5.902;2023-12-04T11:25:57;100608.09;;;3.00;79.20
38466;BME280;24244;51.950;5.902;2023-12-04T11:28:25;100598.44;;;3.01;78.96
38466;BME280;24244;51.950;5.902;2023-12-04T11:30:54;100594.84;;;3.02;79.33
38466;BME280;24244;51.950;5.902;2023-12-04T11:33:22;100594.56;;;3.05;79.06
38466;BME280;24244;51.950;5.902;2023-12-04T11:35:50;100585.69;;;3.06;79.34
38466;BME280;24244;51.950;5.902;2023-12-04T11:38:18;100584.72;;;3.07;79.22
38466;BME280;24244;51.950;5.902;2023-12-04T11:40:46;100576.84;;;3.07;79.20
38466;BME280;24244;51.950;5.902;2023-12-04T11:43:24;100575.88;;;3.08;79.28
38466;BME280;24244;51.950;5.902;2023-12-04T11:45:51;100581.00;;;3.09;79.21
38466;BME280;24244;51.950;5.902;2023-12-04T11:48:22;100570.34;;;3.11;79.32
38466;BME280;24244;51.950;5.902;2023-12-04T11:50:50;100565.09;;;3.11;79.04
38466;BME280;24244;51.950;5.902;2023-12-04T11:53:18;100565.94;;;3.11;79.08
38466;BME280;24244;51.950;5.902;2023-12-04T11:55:46;100566.78;;;3.12;79.09
38466;BME280;24244;51.950;5.902;2023-12-04T11:58:16;100559.56;;;3.14;79.26
38466;BME280;24244;51.950;5.902;2023-12-04T12:00:44;100552.50;;;3.14;78.90
38466;BME280;24244;51.950;5.902;2023-12-04T12:03:14;100559.41;;;3.15;78.77
38466;BME280;24244;51.950;5.902;2023-12-04T12:05:50;100548.09;;;3.15;78.57
38466;BME280;24244;51.950;5.902;2023-12-04T12:08:20;100537.31;;;3.18;78.98
38466;BME280;24244;51.950;5.902;2023-12-04T12:10:47;100540.91;;;3.17;78.89
38466;BME280;24244;51.950;5.902;2023-12-04T12:13:14;100542.56;;;3.18;78.40
38466;BME280;24244;51.950;5.902;2023-12-04T12:15:41;100544.34;;;3.18;78.79
38466;BME280;24244;51.950;5.902;2023-12-04T12:18:10;100534.81;;;3.17;78.40
38466;BME280;24244;51.950;5.902;2023-12-04T12:20:37;100528.72;;;3.16;78.10
38466;BME280;24244;51.950;5.902;2023-12-04T12:23:04;100524.31;;;3.17;78.25
38466;BME280;24244;51.950;5.902;2023-12-04T12:25:31;100525.00;;;3.19;78.48
38466;BME280;24244;51.950;5.902;2023-12-04T12:28:02;100526.78;;;3.18;78.30
38466;BME280;24244;51.950;5.902;2023-12-04T12:30:29;100520.72;;;3.18;78.05
38466;BME280;24244;51.950;5.902;2023-12-04T12:32:56;100525.00;;;3.19;78.30
38466;BME280;24244;51.950;5.902;2023-12-04T12:35:24;100515.31;;;3.19;78.27
38466;BME280;24244;51.950;5.902;2023-12-04T12:37:51;100517.66;;;3.22;78.05
38466;BME280;24244;51.950;5.902;2023-12-04T12:40:21;100504.50;;;3.22;78.19
38466;BME280;24244;51.950;5.902;2023-12-04T12:42:48;100498.28;;;3.23;78.24
38466;BME280;24244;51.950;5.902;2023-12-04T12:45:15;100499.13;;;3.24;78.54
38466;BME280;24244;51.950;5.902;2023-12-04T12:47:43;100491.38;;;3.22;78.10
38466;BME280;24244;51.950;5.902;2023-12-04T12:50:11;100489.44;;;3.24;77.94
38466;BME280;24244;51.950;5.902;2023-12-04T12:52:42;100482.41;;;3.25;78.23
38466;BME280;24244;51.950;5.902;2023-12-04T12:55:09;100476.31;;;3.24;78.30
38466;BME280;24244;51.950;5.902;2023-12-04T12:57:37;100469.41;;;3.23;77.99
38466;BME280;24244;51.950;5.902;2023-12-04T13:00:06;100453.50;;;3.25;77.87
38466;BME280;24244;51.950;5.902;2023-12-04T13:02:35;100454.47;;;3.24;77.95
38466;BME280;24244;51.950;5.902;2023-12-04T13:05:04;100450.88;;;3.25;78.05
38466;BME280;24244;51.950;5.902;2023-12-04T13:07:32;100442.16;;;3.24;78.02
38466;BME280;24244;51.950;5.902;2023-12-04T13:10:00;100435.81;;;3.27;77.86
38466;BME280;24244;51.950;5.902;2023-12-04T13:12:32;100435.63;;;3.28;77.98